createdAt,value
2018-07-23T00:01:24.841Z,24.18
2018-07-23T00:03:54.580Z,23.92
2018-07-23T00:06:24.745Z,24.08
2018-07-23T00:08:54.562Z,24.05
2018-07-23T00:11:24.190Z,23.62
2018-07-23T00:13:53.888Z,23.77
2018-07-23T00:16:23.661Z,23.61
2018-07-23T00:18:53.352Z,23.96
2018-07-23T00:21:23.240Z,24.12
2018-07-23T00:23:52.878Z,24.18
2018-07-23T00:26:22.713Z,24.16
2018-07-23T00:28:52.496Z,24.24
2018-07-23T00:31:22.226Z,24.24
2018-07-23T00:33:51.886Z,24.13
2018-07-23T00:36:21.619Z,24.12
2018-07-23T00:38:51.397Z,23.85
2018-07-23T00:41:21.045Z,23.88
2018-07-23T00:43:50.745Z,24.03
2018-07-23T00:46:20.907Z,24.05
2018-07-23T00:48:50.674Z,23.93
2018-07-23T00:51:20.475Z,23.90
2018-07-23T00:53:50.310Z,23.77
2018-07-23T00:56:20.020Z,23.77
2018-07-23T00:58:49.857Z,23.80
2018-07-23T01:01:20.001Z,23.55
2018-07-23T01:03:49.760Z,23.56
2018-07-23T01:06:19.396Z,22.48
2018-07-23T01:08:49.363Z,23.71
2018-07-23T01:11:19.133Z,22.86
2018-07-23T01:13:48.913Z,23.04
2018-07-23T01:16:18.691Z,23.24
2018-07-23T01:18:48.569Z,23.09
2018-07-23T01:21:18.136Z,23.33
2018-07-23T01:23:47.851Z,23.40
2018-07-23T01:26:17.627Z,22.84
2018-07-23T01:28:47.452Z,22.16
2018-07-23T01:31:17.475Z,22.37
2018-07-23T01:33:47.265Z,22.50
2018-07-23T01:36:17.101Z,22.93
2018-07-23T01:38:47.137Z,23.07
2018-07-23T01:41:16.958Z,23.25
2018-07-23T01:43:46.814Z,23.07
2018-07-23T01:46:16.590Z,23.10
2018-07-23T01:48:46.398Z,23.04
2018-07-23T01:51:16.101Z,23.10
2018-07-23T01:53:45.869Z,23.06
2018-07-23T01:56:15.808Z,23.05
2018-07-23T01:58:45.525Z,23.09
2018-07-23T02:01:15.324Z,22.93
2018-07-23T02:03:44.978Z,22.95
2018-07-23T02:06:14.650Z,22.97
2018-07-23T02:08:44.429Z,22.70
2018-07-23T02:11:14.362Z,22.15
2018-07-23T02:13:43.981Z,22.45
2018-07-23T02:16:13.754Z,22.31
2018-07-23T02:18:43.486Z,22.54
2018-07-23T02:21:13.159Z,22.66
2018-07-23T02:23:43.025Z,22.59
2018-07-23T02:26:12.909Z,22.04
2018-07-23T02:28:42.665Z,22.18
2018-07-23T02:31:12.573Z,22.33
2018-07-23T02:33:42.370Z,22.49
2018-07-23T02:36:12.861Z,22.66
2018-07-23T02:38:42.579Z,22.63
2018-07-23T02:41:12.319Z,22.51
2018-07-23T02:43:41.873Z,21.92
2018-07-23T02:46:11.587Z,22.10
2018-07-23T02:48:41.358Z,22.13
2018-07-23T02:51:11.075Z,22.20
2018-07-23T02:53:40.930Z,22.06
2018-07-23T02:56:10.704Z,22.37
2018-07-23T02:58:40.545Z,22.26
2018-07-23T03:01:10.469Z,22.22
2018-07-23T03:03:40.267Z,22.30
2018-07-23T03:06:10.064Z,22.03
2018-07-23T03:08:40.000Z,21.96
2018-07-23T03:11:09.865Z,22.30
2018-07-23T03:13:40.364Z,22.32
2018-07-23T03:16:10.019Z,22.37
2018-07-23T03:18:39.820Z,21.69
2018-07-23T03:21:09.504Z,21.72
2018-07-23T03:23:39.284Z,22.06
2018-07-23T03:26:09.155Z,22.19
2018-07-23T03:28:38.901Z,22.26
2018-07-23T03:31:08.599Z,22.31
2018-07-23T03:33:38.266Z,22.37
2018-07-23T03:36:08.065Z,22.29
2018-07-23T03:38:37.764Z,22.30
2018-07-23T03:41:07.550Z,22.26
2018-07-23T03:43:37.132Z,22.37
2018-07-23T03:46:06.840Z,22.23
2018-07-23T03:48:36.438Z,21.92
2018-07-23T03:51:06.046Z,22.24
2018-07-23T03:53:35.634Z,22.34
2018-07-23T03:56:05.453Z,22.40
2018-07-23T03:58:35.017Z,22.76
2018-07-23T04:01:04.589Z,22.40
2018-07-23T04:03:34.277Z,22.00
2018-07-23T04:06:04.000Z,22.30
2018-07-23T04:08:33.608Z,22.78
2018-07-23T04:11:03.330Z,22.27
2018-07-23T04:13:33.099Z,21.92
2018-07-23T04:16:03.117Z,21.00
2018-07-23T04:18:32.781Z,21.18
2018-07-23T04:21:02.449Z,21.18
2018-07-23T04:23:32.152Z,21.22
2018-07-23T04:26:01.810Z,21.61
2018-07-23T04:28:31.476Z,21.89
2018-07-23T04:31:01.119Z,21.81
2018-07-23T04:33:30.809Z,21.85
2018-07-23T04:36:00.505Z,22.26
2018-07-23T04:38:30.164Z,22.45
2018-07-23T04:40:59.833Z,22.54
2018-07-23T04:43:29.534Z,22.43
2018-07-23T04:45:59.263Z,22.78
2018-07-23T04:48:28.979Z,22.82
2018-07-23T04:50:58.756Z,22.76
2018-07-23T04:53:28.594Z,22.83
2018-07-23T04:55:58.344Z,23.10
2018-07-23T04:58:28.213Z,23.25
2018-07-23T05:00:58.074Z,23.20
2018-07-23T05:03:27.817Z,23.42
2018-07-23T05:05:57.517Z,23.42
2018-07-23T05:08:27.287Z,23.62
2018-07-23T05:10:56.998Z,23.85
2018-07-23T05:13:26.740Z,23.98
2018-07-23T05:15:56.522Z,23.94
2018-07-23T05:18:26.619Z,24.10
2018-07-23T05:20:56.599Z,24.29
2018-07-23T05:23:26.325Z,24.47
2018-07-23T05:25:56.300Z,24.54
2018-07-23T05:28:25.925Z,24.17
2018-07-23T05:30:55.827Z,23.53
2018-07-23T05:33:25.648Z,23.83
2018-07-23T05:35:55.468Z,24.14
2018-07-23T05:38:25.412Z,24.22
2018-07-23T05:40:55.176Z,24.55
2018-07-23T05:43:25.068Z,24.99
2018-07-23T05:45:54.859Z,24.67
2018-07-23T05:48:25.104Z,23.55
2018-07-23T05:50:54.898Z,24.15
2018-07-23T05:53:24.692Z,24.32
2018-07-23T05:55:54.426Z,24.09
2018-07-23T05:58:24.267Z,24.13
2018-07-23T06:00:53.985Z,24.66
2018-07-23T06:03:23.975Z,24.93
2018-07-23T06:05:53.580Z,24.90
2018-07-23T06:08:23.474Z,24.99
2018-07-23T06:10:53.282Z,24.93
2018-07-23T06:13:23.124Z,24.94
2018-07-23T06:15:52.873Z,25.32
2018-07-23T06:18:22.746Z,25.86
2018-07-23T06:20:52.935Z,25.71
2018-07-23T06:23:22.667Z,25.89
2018-07-23T06:25:52.525Z,25.76
2018-07-23T06:28:22.396Z,26.11
2018-07-23T06:30:52.198Z,26.44
2018-07-23T06:33:22.272Z,26.29
2018-07-23T06:35:52.706Z,26.84
2018-07-23T06:38:22.508Z,26.76
2018-07-23T06:40:53.085Z,27.75
2018-07-23T06:43:24.748Z,27.88
2018-07-23T06:45:54.685Z,27.82
2018-07-23T06:48:24.490Z,28.12
2018-07-23T06:50:54.874Z,28.25
2018-07-23T06:53:24.644Z,28.21
2018-07-23T06:55:54.313Z,28.62
2018-07-23T06:58:24.643Z,29.02
2018-07-23T07:00:54.806Z,28.90
2018-07-23T07:03:24.853Z,29.34
2018-07-23T07:05:54.955Z,28.73
2018-07-23T07:08:24.848Z,29.08
2018-07-23T07:10:56.677Z,30.04
2018-07-23T07:13:26.666Z,30.01
2018-07-23T07:15:56.536Z,30.93
2018-07-23T07:18:26.295Z,30.80
2018-07-23T07:20:56.637Z,31.70
2018-07-23T07:23:26.933Z,30.55
2018-07-23T07:25:56.782Z,30.51
2018-07-23T07:28:26.579Z,30.69
2018-07-23T07:30:57.752Z,30.60
2018-07-23T07:33:27.550Z,30.64
2018-07-23T07:35:57.359Z,31.24
2018-07-23T07:38:26.930Z,31.08
2018-07-23T07:40:56.732Z,31.26
2018-07-23T07:43:27.261Z,31.10
2018-07-23T07:45:57.093Z,31.07
2018-07-23T07:48:26.764Z,30.93
2018-07-23T07:50:56.405Z,31.55
2018-07-23T07:53:26.292Z,32.23
2018-07-23T07:55:56.279Z,32.52
2018-07-23T07:58:25.915Z,32.74
2018-07-23T08:00:55.776Z,33.15
2018-07-23T08:03:25.616Z,31.85
2018-07-23T08:05:55.326Z,32.35
2018-07-23T08:08:25.024Z,32.47
2018-07-23T08:10:54.917Z,32.83
2018-07-23T08:13:24.685Z,33.51
2018-07-23T08:22:07.433Z,33.44
2018-07-23T08:24:37.476Z,33.33
2018-07-23T08:27:07.426Z,33.41
2018-07-23T08:29:37.287Z,34.50
2018-07-23T08:32:07.115Z,34.16
2018-07-23T08:34:36.834Z,34.16
2018-07-23T08:37:07.615Z,33.99
2018-07-23T08:39:38.164Z,33.85
2018-07-23T08:42:08.820Z,33.86
2018-07-23T08:44:38.719Z,34.88
2018-07-23T08:47:09.194Z,34.25
2018-07-23T08:49:40.123Z,34.55
2018-07-23T08:52:13.093Z,34.69
2018-07-23T08:54:43.077Z,35.23
2018-07-23T08:57:13.772Z,34.90
2018-07-23T08:59:44.460Z,33.57
2018-07-23T09:02:19.542Z,34.02
2018-07-23T09:04:50.904Z,35.37
2018-07-23T09:07:22.034Z,34.20
2018-07-23T09:09:52.401Z,35.58
2018-07-23T09:12:23.407Z,35.59
2018-07-23T09:14:53.881Z,36.11
2018-07-23T09:17:24.549Z,36.46
2018-07-23T09:19:55.444Z,36.46
2018-07-23T09:22:27.473Z,36.42
2018-07-23T09:24:58.160Z,35.14
2018-07-23T09:27:30.426Z,34.62
2018-07-23T09:30:01.001Z,34.76
2018-07-23T09:32:31.845Z,34.76
2018-07-23T09:35:03.200Z,35.66
2018-07-23T09:37:33.629Z,35.47
2018-07-23T09:40:04.236Z,36.33
2018-07-23T09:42:35.082Z,36.83
2018-07-23T09:45:05.821Z,36.14
2018-07-23T09:47:36.187Z,36.82
2018-07-23T09:50:06.709Z,36.45
2018-07-23T09:52:41.356Z,35.04
2018-07-23T09:55:11.528Z,36.17
2018-07-23T09:57:41.978Z,36.71
2018-07-23T10:00:13.418Z,36.85
2018-07-23T10:02:44.422Z,37.23
2018-07-23T10:05:14.875Z,36.81
2018-07-23T10:07:45.576Z,36.88
2018-07-23T10:10:16.016Z,36.99
2018-07-23T10:12:47.139Z,37.05
2018-07-23T10:15:17.872Z,37.10
2018-07-23T10:17:48.171Z,35.53
2018-07-23T10:20:18.997Z,35.45
2018-07-23T10:22:49.757Z,36.76
2018-07-23T10:25:21.673Z,37.13
2018-07-23T10:27:52.037Z,37.85
2018-07-23T10:30:23.248Z,37.21
2018-07-23T10:32:55.193Z,36.68
2018-07-23T10:35:25.718Z,35.70
2018-07-23T10:37:55.922Z,35.35
2018-07-23T10:40:26.551Z,34.32
2018-07-23T10:42:57.445Z,33.83
2018-07-23T10:45:28.489Z,33.81
2018-07-23T10:48:01.980Z,33.21
2018-07-23T10:50:35.253Z,34.28
2018-07-23T10:53:06.762Z,33.96
2018-07-23T10:55:37.321Z,34.41
2018-07-23T10:58:07.596Z,35.54
2018-07-23T11:00:38.166Z,36.14
2018-07-23T11:03:08.092Z,36.72
2018-07-23T11:05:38.707Z,37.06
2018-07-23T11:08:09.369Z,36.54
2018-07-23T11:10:40.103Z,35.80
2018-07-23T11:13:10.917Z,34.36
2018-07-23T11:15:41.446Z,35.03
2018-07-23T11:18:12.072Z,34.30
2018-07-23T11:20:42.564Z,34.33
2018-07-23T11:23:13.928Z,34.90
2018-07-23T11:25:44.202Z,33.74
2018-07-23T11:28:14.916Z,33.36
2018-07-23T11:30:45.846Z,33.34
2018-07-23T11:33:17.190Z,32.81
2018-07-23T11:35:47.617Z,32.99
2018-07-23T11:38:17.896Z,32.67
2018-07-23T11:40:48.093Z,32.98
2018-07-23T11:43:19.573Z,32.67
2018-07-23T11:45:50.954Z,32.29
2018-07-23T11:48:21.408Z,32.52
2018-07-23T11:50:51.767Z,33.13
2018-07-23T11:53:22.996Z,33.13
2018-07-23T11:55:53.584Z,32.41
2018-07-23T11:58:23.932Z,31.76
2018-07-23T12:00:54.235Z,32.34
2018-07-23T12:03:25.925Z,32.57
2018-07-23T12:05:56.687Z,32.31
2018-07-23T12:08:27.471Z,32.32
2018-07-23T12:10:57.594Z,32.36
2018-07-23T12:13:28.633Z,31.46
2018-07-23T12:15:58.516Z,30.96
2018-07-23T12:18:28.278Z,31.07
2018-07-23T12:20:58.596Z,30.61
2018-07-23T12:23:28.840Z,30.59
2018-07-23T12:26:02.699Z,30.48
2018-07-23T12:28:32.515Z,30.74
2018-07-23T12:31:08.552Z,30.39
2018-07-23T12:33:40.542Z,29.84
2018-07-23T12:36:14.332Z,29.30
2018-07-23T12:38:44.123Z,29.28
2018-07-23T12:41:14.235Z,28.92
2018-07-23T12:43:44.699Z,28.49
2018-07-23T12:46:15.164Z,28.89
2018-07-23T12:48:44.953Z,29.58
2018-07-23T12:51:15.160Z,29.53
2018-07-23T12:53:46.203Z,29.95
2018-07-23T12:56:15.809Z,29.77
2018-07-23T12:58:45.362Z,29.25
2018-07-23T13:01:15.241Z,29.37
2018-07-23T13:03:47.732Z,29.89
2018-07-23T13:06:17.590Z,29.59
2018-07-23T13:08:47.402Z,29.24
2018-07-23T13:11:17.210Z,29.58
2018-07-23T13:13:47.821Z,28.87
2018-07-23T13:16:17.664Z,29.09
2018-07-23T13:18:47.980Z,28.93
2018-07-23T13:21:17.737Z,28.57
2018-07-23T13:23:48.025Z,28.64
2018-07-23T13:26:18.771Z,28.20
2018-07-23T13:28:48.466Z,28.26
2018-07-23T13:31:19.138Z,28.12
2018-07-23T13:33:50.183Z,28.14
2018-07-23T13:36:20.113Z,28.38
2018-07-23T13:38:49.999Z,28.46
2018-07-23T13:41:19.857Z,28.02
2018-07-23T13:43:57.095Z,27.83
2018-07-23T13:46:26.929Z,27.71
2018-07-23T13:48:56.824Z,27.51
2018-07-23T13:51:26.632Z,27.25
2018-07-23T13:53:58.347Z,27.50
2018-07-23T13:56:28.189Z,26.60
2018-07-23T13:58:58.186Z,26.82
2018-07-23T14:01:27.958Z,26.73
2018-07-23T14:03:58.617Z,26.55
2018-07-23T14:06:28.783Z,27.04
2018-07-23T14:08:58.588Z,27.49
2018-07-23T14:11:29.715Z,27.20
2018-07-23T14:14:00.859Z,27.33
2018-07-23T14:16:31.102Z,26.87
2018-07-23T14:19:00.901Z,27.21
2018-07-23T14:21:33.545Z,27.00
2018-07-23T14:24:04.623Z,26.92
2018-07-23T14:26:35.433Z,26.71
2018-07-23T14:29:05.070Z,26.47
2018-07-23T14:31:35.643Z,26.80
2018-07-23T14:34:10.088Z,21.86
2018-07-23T14:36:41.309Z,26.64
2018-07-23T14:39:13.654Z,27.21
2018-07-23T14:41:43.591Z,27.57
2018-07-23T14:44:15.799Z,27.92
2018-07-23T14:46:46.005Z,27.92
2018-07-23T14:49:17.547Z,28.23
2018-07-23T14:51:48.207Z,28.11
2018-07-23T14:54:18.815Z,27.84
2018-07-23T14:56:48.647Z,27.72
2018-07-23T14:59:18.628Z,27.77
2018-07-23T15:01:48.866Z,28.05
2018-07-23T15:04:20.625Z,28.13
2018-07-23T15:06:50.520Z,28.18
2018-07-23T15:09:20.278Z,27.84
2018-07-23T15:11:50.116Z,27.70
2018-07-23T15:14:19.988Z,27.85
2018-07-23T15:16:49.665Z,27.94
2018-07-23T15:19:19.454Z,27.24
2018-07-23T15:21:49.417Z,26.86
2018-07-23T15:24:19.132Z,27.02
2018-07-23T15:26:48.779Z,27.03
2018-07-23T15:29:18.553Z,27.37
2018-07-23T15:31:48.846Z,27.07
2018-07-23T15:34:19.540Z,27.44
2018-07-23T15:36:49.733Z,27.32
2018-07-23T15:39:19.520Z,27.16
2018-07-23T15:41:49.370Z,27.25
2018-07-23T15:44:19.684Z,27.21
2018-07-23T15:46:49.245Z,27.20
2018-07-23T15:49:21.057Z,27.14
2018-07-23T15:51:52.110Z,27.34
2018-07-23T15:54:23.151Z,26.94
2018-07-23T15:56:52.907Z,26.67
2018-07-23T15:59:22.677Z,26.50
2018-07-23T16:01:52.486Z,27.04
2018-07-23T16:04:23.261Z,26.75
2018-07-23T16:06:53.077Z,27.01
2018-07-23T16:09:22.865Z,27.03
2018-07-23T16:11:52.855Z,26.84
2018-07-23T16:14:26.944Z,26.58
2018-07-23T16:16:56.847Z,26.67
2018-07-23T16:19:27.028Z,26.49
2018-07-23T16:21:56.823Z,26.48
2018-07-23T16:24:28.210Z,27.04
2018-07-23T16:26:58.070Z,27.25
2018-07-23T16:29:27.904Z,27.31
2018-07-23T16:31:58.214Z,27.53
2018-07-23T16:34:27.986Z,27.33
2018-07-23T16:36:57.863Z,26.81
2018-07-23T16:39:27.780Z,26.62
2018-07-23T16:41:57.540Z,26.68
2018-07-23T16:44:27.258Z,27.05
2018-07-23T16:46:57.132Z,26.97
2018-07-23T16:49:26.945Z,26.63
2018-07-23T16:51:56.768Z,26.67
2018-07-23T16:54:26.643Z,26.67
2018-07-23T16:56:56.562Z,26.92
2018-07-23T16:59:26.320Z,26.95
2018-07-23T17:01:56.655Z,27.07
2018-07-23T17:04:26.508Z,27.20
2018-07-23T17:06:56.405Z,27.24
2018-07-23T17:09:26.131Z,27.04
2018-07-23T17:11:55.940Z,26.66
2018-07-23T17:14:25.827Z,26.07
2018-07-23T17:16:56.546Z,25.97
2018-07-23T17:19:26.216Z,26.12
2018-07-23T17:21:56.137Z,26.32
2018-07-23T17:24:25.909Z,26.31
2018-07-23T17:26:55.826Z,25.94
2018-07-23T17:29:25.496Z,25.81
2018-07-23T17:31:55.385Z,26.02
2018-07-23T17:34:25.555Z,26.13
2018-07-23T17:36:55.455Z,25.85
2018-07-23T17:39:25.317Z,25.70
2018-07-23T17:41:56.265Z,25.98
2018-07-23T17:44:26.308Z,25.59
2018-07-23T17:46:55.996Z,25.34
2018-07-23T17:49:27.136Z,25.16
2018-07-23T17:51:57.089Z,24.97
2018-07-23T17:54:26.926Z,25.07
2018-07-23T17:56:57.022Z,25.41
2018-07-23T17:59:26.935Z,25.03
2018-07-23T18:01:57.319Z,25.04
2018-07-23T18:04:27.255Z,24.83
2018-07-23T18:06:57.143Z,24.61
2018-07-23T18:09:27.168Z,24.49
2018-07-23T18:11:57.191Z,24.66
2018-07-23T18:14:27.082Z,24.67
2018-07-23T18:16:56.949Z,24.81
2018-07-23T18:19:27.638Z,24.59
2018-07-23T18:21:57.593Z,24.58
2018-07-23T18:24:27.590Z,24.54
2018-07-23T18:26:57.465Z,24.80
2018-07-23T18:29:27.274Z,25.10
2018-07-23T18:31:59.939Z,25.27
2018-07-23T18:34:30.345Z,25.25
2018-07-23T18:37:00.126Z,25.32
2018-07-23T18:39:30.154Z,25.32
2018-07-23T18:41:59.831Z,25.12
2018-07-23T18:44:29.666Z,25.20
2018-07-23T18:46:59.384Z,25.17
2018-07-23T18:50:01.373Z,25.20
2018-07-23T18:52:32.040Z,25.01
2018-07-23T18:55:02.565Z,24.79
2018-07-23T18:57:32.485Z,24.52
2018-07-23T19:00:02.306Z,23.96
2018-07-23T19:02:33.465Z,24.29
2018-07-23T19:05:03.350Z,23.70
2018-07-23T19:07:33.212Z,23.54
2018-07-23T19:10:03.100Z,23.58
2018-07-23T19:12:33.754Z,23.29
2018-07-23T19:15:04.055Z,23.74
2018-07-23T19:17:33.802Z,24.09
2018-07-23T19:20:03.865Z,23.48
2018-07-23T19:22:34.721Z,23.13
2018-07-23T19:25:04.727Z,23.49
2018-07-23T19:27:34.386Z,23.11
2018-07-23T19:30:04.380Z,22.48
2018-07-23T19:32:34.596Z,22.27
2018-07-23T19:35:05.019Z,22.29
2018-07-23T19:37:34.776Z,22.43
2018-07-23T19:40:05.692Z,22.15
2018-07-23T19:42:36.322Z,22.57
2018-07-23T19:45:06.603Z,23.21
2018-07-23T19:47:36.447Z,23.56
2018-07-23T19:50:06.938Z,23.57
2018-07-23T19:52:37.461Z,23.41
2018-07-23T19:55:07.683Z,23.53
2018-07-23T19:57:37.923Z,23.74
2018-07-23T20:00:07.845Z,23.37
2018-07-23T20:02:38.191Z,23.63
2018-07-23T20:05:07.872Z,23.81
2018-07-23T20:07:37.664Z,23.97
2018-07-23T20:10:07.402Z,23.98
2018-07-23T20:12:37.072Z,23.87
2018-07-23T20:15:06.976Z,23.73
2018-07-23T20:17:36.777Z,22.53
2018-07-23T20:20:08.817Z,22.01
2018-07-23T20:22:40.263Z,21.84
2018-07-23T20:25:11.877Z,22.10
2018-07-23T20:27:41.679Z,22.11
2018-07-23T20:30:11.569Z,22.20
2018-07-23T20:32:43.997Z,22.12
2018-07-23T20:35:13.950Z,22.06
2018-07-23T20:37:43.874Z,22.00
2018-07-23T20:40:14.246Z,21.85
2018-07-23T20:42:44.957Z,22.35
2018-07-23T20:45:15.208Z,22.97
2018-07-23T20:47:45.228Z,23.32
2018-07-23T20:50:14.994Z,23.46
2018-07-23T20:52:45.070Z,23.50
2018-07-23T20:55:15.098Z,23.44
2018-07-23T20:57:44.945Z,22.41
2018-07-23T21:00:14.708Z,22.19
2018-07-23T21:02:44.516Z,21.88
2018-07-23T21:05:14.362Z,21.85
2018-07-23T21:07:44.252Z,22.02
2018-07-23T21:10:14.074Z,22.45
2018-07-23T21:12:43.982Z,22.46
2018-07-23T21:15:13.868Z,22.53
2018-07-23T21:17:43.584Z,22.63
2018-07-23T21:20:13.206Z,22.81
2018-07-23T21:22:43.028Z,22.67
2018-07-23T21:25:14.069Z,22.83
2018-07-23T21:27:43.849Z,22.95
2018-07-23T21:30:13.827Z,22.95
2018-07-23T21:32:44.061Z,22.90
2018-07-23T21:35:13.902Z,23.01
2018-07-23T21:37:43.932Z,22.65
2018-07-23T21:40:13.693Z,21.66
2018-07-23T21:42:43.496Z,21.81
2018-07-23T21:45:14.371Z,21.50
2018-07-23T21:47:44.165Z,21.94
2018-07-23T21:50:14.042Z,21.69
2018-07-23T21:52:44.974Z,21.60
2018-07-23T21:55:14.798Z,21.93
2018-07-23T21:57:44.554Z,21.16
2018-07-23T22:00:16.162Z,21.77
2018-07-23T22:02:47.164Z,21.76
2018-07-23T22:05:16.985Z,22.18
2018-07-23T22:07:46.633Z,21.56
2018-07-23T22:10:16.801Z,21.35
2018-07-23T22:12:46.918Z,21.76
2018-07-23T22:15:16.655Z,22.01
2018-07-23T22:17:46.382Z,21.55
2018-07-23T22:20:16.241Z,21.32
2018-07-23T22:22:45.968Z,21.35
2018-07-23T22:25:15.938Z,21.00
2018-07-23T22:27:45.757Z,20.74
2018-07-23T22:30:15.568Z,20.74
2018-07-23T22:32:45.260Z,20.80
2018-07-23T22:35:15.086Z,20.95
2018-07-23T22:37:44.884Z,21.34
2018-07-23T22:40:14.643Z,21.93
2018-07-23T22:42:44.859Z,22.05
2018-07-23T22:45:14.664Z,22.10
2018-07-23T22:47:44.521Z,22.35
2018-07-23T22:50:14.317Z,22.04
2018-07-23T22:52:44.694Z,21.86
2018-07-23T22:55:14.583Z,22.17
2018-07-23T22:57:45.338Z,22.31
2018-07-23T23:00:15.221Z,22.43
2018-07-23T23:02:45.472Z,22.47
2018-07-23T23:05:15.366Z,22.43
2018-07-23T23:07:45.205Z,21.99
2018-07-23T23:10:16.014Z,21.93
2018-07-23T23:12:46.650Z,22.23
2018-07-23T23:15:16.517Z,22.56
2018-07-23T23:17:46.410Z,22.58
2018-07-23T23:20:16.245Z,22.15
2018-07-23T23:22:46.963Z,21.93
2018-07-23T23:25:16.709Z,21.98
2018-07-23T23:27:46.500Z,22.08
2018-07-23T23:30:16.233Z,22.08
2018-07-23T23:32:45.999Z,22.48
2018-07-23T23:35:15.800Z,22.49
2018-07-23T23:37:45.602Z,22.00
2018-07-23T23:40:15.585Z,21.83
2018-07-23T23:42:45.517Z,21.94
2018-07-23T23:45:15.192Z,21.81
2018-07-23T23:47:44.912Z,21.40
2018-07-23T23:50:14.579Z,21.20
2018-07-23T23:52:44.310Z,20.96
2018-07-23T23:55:14.145Z,20.82
2018-07-23T23:57:43.979Z,20.99
